Pittsburgh International Airport
KPIT : now visible

Airfield :











YOU CAN JOIN US ON...

 
LOGIN :

Register | Disclaimer

   EN    FR    IT 

 









Legend :    VFR   Marginal VFR   IFR   Intensive IFR   Very Intensive IFR
Visi :
Ceiling :
>= 8 km
>= 3000ft
5 to 8 km
1000 to 3000 ft
1500m to 5 km
500 to 1000 ft
800 to 1500m
200 to 500 ft
< 800m
< 200 ft
Symbols :   Thunderstorms  Fog  Heavy snow  Heavy precipitations  Wind > 20 kt






- Airport Elevation : 1203 ft
- IATA code : PIT


KPIT - Pittsburgh International

CURRENT METAR :
  • 200151Z 27009KT 7SM -SN OVC036 M09/M13 A3021 RMK AO2 SLP258 P0000 T10891128

EXPIRED METARs :
  • 200051Z 28013KT 8SM -SN SCT020 BKN031 OVC048 M09/M13 A3021 RMK AO2 SLP256 P0000 T10891133
  • 192351Z 27011KT 5SM -SN FEW018 OVC035 M09/M13 A3019 RMK AO2 SLP248 P0000 60000 T10891128 11067 21089 53031
  • 192333Z 28012KT 7SM -SN FEW022 BKN031 OVC039 M09/M13 A3018 RMK AO2 P0000 T10891133

TAF KPIT
Valid from the 20 at 01:00 until the 21 at 06:00 UTC


200110Z 2001/2106 28012KT P6SM -SN OVC025
TEMPO 2003/2007 3SM -SN BKN015
FM200700 32008KT P6SM -SN OVC025
FM201200 34008KT P6SM BKN025
FM201700 34010KT P6SM BKN035



MET'MAP, your aeronautical weather chart ! - Copyright ORBIFLY December 2007 - Disclaimer

ORBIFLY MET'MAP TEAM :

Programming & Development : Alexandra Zaïnal
Concept & original design : Baudouin d'Aumeries
Assistance for programming : Marc-Olivier Méhu
Technical & hardware support : Manuel Goepfert

Contact : metmap@orbifly.com




SOURCES & CREDITS :

   NOAA       Earth
Advisory